Time;durP1;ratioP1;P1;durP2;ratioP2;P2;SDS_P1;SDS_P2;PMS_P1;PMS_P2;Temp;Humidity;BMP_temperature;BMP_pressure;BME280_temperature;BME280_humidity;BME280_pressure;Samples;Min_cycle;Max_cycle;Signal;HPM_P1;HPM_P2
2022/04/22 00:00:33;;;;;;;24.37;16.50;;;;;;;8.44;73.11;100517.70;1674045;85;21043;-80
2022/04/22 00:02:59;;;;;;;22.58;16.12;;;;;;;8.47;73.08;100509.50;1658453;85;21083;-79
2022/04/22 00:05:25;;;;;;;21.67;15.03;;;;;;;8.51;73.11;100507.32;1658978;85;20933;-80
2022/04/22 00:07:51;;;;;;;18.77;13.75;;;;;;;8.55;73.12;100510.72;1684275;85;21121;-79
2022/04/22 00:10:17;;;;;;;20.17;14.33;;;;;;;8.57;73.12;100495.67;1658372;85;21005;-80
2022/04/22 00:12:44;;;;;;;17.05;13.83;;;;;;;8.60;73.14;100499.50;1661125;85;21064;-79
2022/04/22 00:15:13;;;;;;;;;;;;;;;8.62;73.13;100497.77;1667439;84;20885;-79
2022/04/22 00:17:38;;;;;;;15.50;12.35;;;;;;;8.66;73.47;100499.02;1686901;85;20093;-79
2022/04/22 00:20:05;;;;;;;14.13;11.97;;;;;;;8.67;73.18;100499.45;1684649;84;21210;-79
2022/04/22 00:22:31;;;;;;;;;;;;;;;8.68;73.19;100499.43;1677566;85;20949;-79
2022/04/22 00:24:57;;;;;;;19.77;11.40;;;;;;;8.71;73.38;100500.69;1687724;84;20196;-79
2022/04/22 00:27:22;;;;;;;12.20;10.47;;;;;;;8.73;73.19;100498.95;1669694;85;20936;-79
2022/04/22 00:29:48;;;;;;;15.43;11.53;;;;;;;8.76;73.15;100500.20;1666411;84;20940;-79
2022/04/22 00:32:21;;;;;;;18.02;11.50;;;;;;;8.78;73.14;100499.76;1660223;85;21107;-79
2022/04/22 00:34:47;;;;;;;16.32;10.48;;;;;;;8.79;73.12;100496.74;1686299;84;21451;-79
2022/04/22 00:37:13;;;;;;;15.13;10.77;;;;;;;8.80;73.13;100495.44;1679831;84;20902;-79
2022/04/22 00:39:39;;;;;;;12.27;9.00;;;;;;;8.82;73.13;100494.13;1686101;85;20882;-79
2022/04/22 00:42:10;;;;;;;14.87;10.20;;;;;;;8.83;73.15;100494.12;1658962;85;20988;-79
2022/04/22 00:44:37;;;;;;;13.25;8.70;;;;;;;8.85;73.17;100492.34;1685117;84;21044;-79
2022/04/22 00:47:04;;;;;;;;;;;;;;;8.86;73.19;100498.36;1617276;88;21645;-79
2022/04/22 00:49:30;;;;;;;17.60;8.55;;;;;;;8.88;73.37;100491.02;1661885;85;20191;-79
2022/04/22 00:51:57;;;;;;;11.00;7.65;;;;;;;8.88;73.18;100488.44;1657983;86;21064;-79
2022/04/22 00:54:23;;;;;;;12.60;8.30;;;;;;;8.90;73.22;100484.56;1679805;85;20877;-79
2022/04/22 00:56:51;;;;;;;10.73;7.70;;;;;;;8.91;73.20;100484.55;1609136;86;21085;-79
2022/04/22 00:59:19;;;;;;;14.07;8.20;;;;;;;8.92;73.22;100483.67;1651950;85;21207;-80
2022/04/22 01:01:45;;;;;;;12.10;8.03;;;;;;;8.95;73.18;100487.94;1674282;84;21040;-80
2022/04/22 01:09:49;;;;;;;13.13;8.35;;;;;;;8.95;73.17;100487.50;1683758;84;21152;-80
2022/04/22 01:12:16;;;;;;;13.75;8.75;;;;;;;8.95;73.21;100484.07;1682683;85;21104;-80
2022/04/22 01:14:42;;;;;;;12.50;8.73;;;;;;;8.96;73.23;100480.19;1684094;84;21067;-81
2022/04/22 01:17:09;;;;;;;14.73;8.70;;;;;;;8.91;73.26;100461.77;1683400;84;20862;-79
2022/04/22 01:19:35;;;;;;;;;;;;;;;9.00;73.27;100471.13;1675215;84;21092;-80
2022/04/22 01:22:02;;;;;;;15.50;8.68;;;;;;;9.01;73.37;100464.66;1683266;84;20175;-79
2022/04/22 01:24:29;;;;;;;12.82;8.75;;;;;;;9.02;73.31;100465.08;1685280;84;20933;-79
2022/04/22 01:26:57;;;;;;;16.10;10.08;;;;;;;9.04;73.30;100465.06;1641186;86;20947;-79
2022/04/22 01:29:24;;;;;;;15.90;9.78;;;;;;;9.05;73.32;100466.33;1682830;85;20982;-79
2022/04/22 01:31:51;;;;;;;11.83;9.45;;;;;;;9.06;73.32;100460.30;1682443;85;20906;-78
2022/04/22 01:34:18;;;;;;;11.37;9.70;;;;;;;9.08;73.37;100457.27;1667474;85;21586;-79
2022/04/22 01:36:44;;;;;;;15.48;10.48;;;;;;;9.10;73.35;100454.67;1683792;84;20993;-79
2022/04/22 01:39:13;;;;;;;21.62;10.30;;;;;;;9.12;73.38;100460.22;1679404;84;21092;-79
2022/04/22 01:41:41;;;;;;;12.97;9.87;;;;;;;9.14;73.39;100456.34;1666160;85;21782;-79
2022/04/22 01:44:07;;;;;;;14.43;9.63;;;;;;;9.13;73.43;100455.48;1683684;84;21123;-79
2022/04/22 01:46:33;;;;;;;14.07;10.13;;;;;;;9.16;73.46;100455.88;1683062;84;21072;-80
2022/04/22 01:48:59;;;;;;;12.07;10.33;;;;;;;9.18;73.49;100454.99;1680804;84;21009;-79
2022/04/22 01:51:25;;;;;;;14.40;9.33;;;;;;;9.19;73.51;100454.12;1660922;85;20910;-79
2022/04/22 01:53:51;;;;;;;15.65;10.43;;;;;;;9.22;73.51;100454.08;1679499;84;21043;-79
2022/04/22 01:56:17;;;;;;;19.23;11.88;;;;;;;9.23;73.53;100448.48;1685408;84;20906;-79
2022/04/22 01:58:44;;;;;;;14.60;11.43;;;;;;;9.24;73.54;100443.30;1672548;84;20953;-79
2022/04/22 02:01:10;;;;;;;16.23;11.60;;;;;;;9.24;73.54;100444.59;1671376;85;21390;-80
2022/04/22 02:03:36;;;;;;;19.20;12.27;;;;;;;9.26;73.60;100443.28;1650828;86;20966;-79
2022/04/22 02:06:04;;;;;;;14.63;11.45;;;;;;;9.27;73.63;100444.98;1671080;85;27064;-79
2022/04/22 02:08:31;;;;;;;16.30;11.70;;;;;;;9.27;73.66;100451.00;1672094;84;21116;-79
2022/04/22 02:10:57;;;;;;;17.27;12.37;;;;;;;9.28;73.69;100451.42;1642839;86;21064;-79
2022/04/22 02:13:23;;;;;;;17.85;12.40;;;;;;;9.31;73.70;100449.67;1661343;84;21065;-78
2022/04/22 02:15:49;;;;;;;18.07;12.80;;;;;;;9.32;73.72;100445.78;1665185;84;21050;-79
2022/04/22 02:18:15;;;;;;;17.80;11.65;;;;;;;9.34;73.72;100452.21;1679135;84;20937;-80
2022/04/22 02:20:44;;;;;;;21.23;12.43;;;;;;;9.35;73.74;100444.89;1668549;84;21322;-79
2022/04/22 02:23:10;;;;;;;18.87;12.82;;;;;;;9.35;73.72;100446.18;1673068;85;21056;-79
2022/04/22 02:25:36;;;;;;;18.13;13.13;;;;;;;9.33;73.73;100437.17;1661659;85;21738;-79
2022/04/22 02:30:50;;;;;;;20.48;14.47;;;;;;;9.32;73.82;100438.04;1676603;84;21033;-78
2022/04/22 02:33:16;;;;;;;20.20;13.47;;;;;;;9.33;73.84;100436.31;1680774;83;21075;-78
2022/04/22 02:35:42;;;;;;;18.48;12.58;;;;;;;9.32;73.87;100435.45;1679651;84;21597;-80
2022/04/22 02:38:16;;;;;;;21.05;13.43;;;;;;;9.32;73.90;100439.77;1701455;84;21055;-77
2022/04/22 02:46:12;;;;;;;21.97;12.33;;;;;;;9.39;73.99;100446.52;1679981;84;21056;-80
2022/04/22 02:48:40;;;;;;;18.50;11.75;;;;;;;9.40;73.98;100449.08;1649097;85;21078;-79
2022/04/22 02:51:06;;;;;;;17.43;12.77;;;;;;;9.40;74.02;100448.23;1654069;85;21027;-79
2022/04/22 02:53:33;;;;;;;15.38;11.05;;;;;;;9.40;73.98;100455.97;1650022;85;21033;-78
2022/04/22 02:56:00;;;;;;;17.85;12.10;;;;;;;9.40;74.05;100454.67;1655224;84;21092;-79
2022/04/22 02:58:26;;;;;;;17.27;11.37;;;;;;;9.40;74.04;100455.97;1678598;84;20962;-78
2022/04/22 03:00:52;;;;;;;18.63;11.83;;;;;;;9.39;74.07;100446.08;1666274;84;21654;-79
2022/04/22 03:03:19;;;;;;;15.35;10.80;;;;;;;9.40;74.10;100446.94;1672172;85;21476;-79
2022/04/22 03:05:46;;;;;;;15.10;11.73;;;;;;;9.41;74.13;100444.77;1650509;85;20921;-79
2022/04/22 03:08:11;;;;;;;14.47;11.85;;;;;;;9.42;74.14;100447.33;1671636;84;21033;-79
2022/04/22 03:10:37;;;;;;;16.93;10.37;;;;;;;9.43;74.17;100439.16;1679254;84;20917;-80
2022/04/22 03:13:04;;;;;;;13.57;11.23;;;;;;;9.43;74.12;100441.73;1662669;84;21039;-79
2022/04/22 03:15:32;;;;;;;15.03;11.35;;;;;;;9.42;74.17;100432.28;1665089;84;21035;-79
2022/04/22 03:17:58;;;;;;;15.48;11.12;;;;;;;9.41;74.17;100435.73;1690355;83;20996;-80
2022/04/22 03:20:28;;;;;;;15.55;11.73;;;;;;;9.40;74.18;100439.19;1687037;84;21060;-78
2022/04/22 03:22:54;;;;;;;13.38;10.60;;;;;;;9.40;74.20;100445.64;1690375;83;21596;-79
2022/04/22 03:25:20;;;;;;;18.90;11.03;;;;;;;9.40;74.25;100445.64;1690561;84;21020;-79
2022/04/22 03:27:50;;;;;;;14.58;10.60;;;;;;;9.39;74.24;100443.94;1690503;84;21103;-79
2022/04/22 03:30:16;;;;;;;13.40;10.43;;;;;;;9.39;74.30;100449.95;1690571;84;21071;-78
2022/04/22 03:32:43;;;;;;;14.03;10.32;;;;;;;9.38;74.30;100446.95;1679105;84;21107;-79
2022/04/22 03:35:09;;;;;;;18.25;10.70;;;;;;;9.39;74.32;100458.13;1685420;84;21059;-79
2022/04/22 03:37:36;;;;;;;14.53;10.80;;;;;;;9.39;74.33;100452.97;1688663;83;21012;-79
2022/04/22 03:40:04;;;;;;;17.07;11.40;;;;;;;9.39;74.35;100452.97;1690867;84;20929;-79
2022/04/22 03:42:29;;;;;;;11.83;10.43;;;;;;;9.39;74.40;100458.98;1682437;84;21068;-79
2022/04/22 03:44:59;;;;;;;13.83;10.90;;;;;;;9.40;74.38;100465.00;1677582;84;21068;-79
2022/04/22 03:47:25;;;;;;;15.32;10.63;;;;;;;9.41;74.40;100470.58;1686976;84;21161;-79
2022/04/22 03:49:51;;;;;;;18.10;10.83;;;;;;;9.42;74.45;100470.99;1690669;84;21580;-80
2022/04/22 03:52:17;;;;;;;13.78;11.73;;;;;;;9.42;74.47;100475.72;1687665;84;21123;-79
2022/04/22 03:54:43;;;;;;;14.90;12.25;;;;;;;9.41;74.50;100474.02;1662872;84;21043;-80
2022/04/22 03:59:54;;;;;;;15.78;11.43;;;;;;;9.42;74.50;100469.70;1675511;84;21103;-79
2022/04/22 04:02:21;;;;;;;14.35;11.30;;;;;;;9.44;74.53;100465.38;1686997;84;20980;-80
2022/04/22 04:04:48;;;;;;;16.55;11.30;;;;;;;9.45;74.54;100469.66;1690054;84;21103;-78
2022/04/22 04:07:17;;;;;;;20.08;12.03;;;;;;;9.46;74.54;100467.50;1690476;84;21579;-79
2022/04/22 04:18:00;;;;;;;16.05;13.10;;;;;;;9.47;74.66;100471.34;1659515;85;21615;-80
2022/04/22 04:23:14;;;;;;;17.20;13.13;;;;;;;9.46;74.65;100482.98;1685575;84;21053;-79
2022/04/22 04:25:44;;;;;;;16.50;12.88;;;;;;;9.45;74.69;100479.98;1678174;85;21093;-79
2022/04/22 04:28:11;;;;;;;15.23;12.53;;;;;;;9.46;74.76;100482.55;1682499;85;20974;-79
2022/04/22 04:30:38;;;;;;;;;;;;;;;9.52;74.76;100482.46;1685011;84;20977;-79
2022/04/22 04:33:05;;;;;;;13.93;11.88;;;;;;;9.55;74.97;100485.44;1670467;84;20437;-78
2022/04/22 04:35:38;;;;;;;15.78;12.15;;;;;;;9.57;74.81;100488.85;1681727;83;21032;-77
2022/04/22 04:38:06;;;;;;;19.00;13.35;;;;;;;9.60;74.84;100488.37;1677567;83;21159;-77
2022/04/22 04:40:34;;;;;;;16.87;12.15;;;;;;;9.66;74.86;100487.87;1646376;85;20995;-78
2022/04/22 04:43:00;;;;;;;14.55;12.10;;;;;;;9.67;74.84;100489.14;1682042;85;20957;-78
2022/04/22 04:45:28;;;;;;;16.50;11.23;;;;;;;9.70;74.82;100485.23;1681684;83;20862;-78
2022/04/22 04:47:55;;;;;;;16.97;11.73;;;;;;;9.75;74.89;100480.00;1679968;84;20949;-78
2022/04/22 04:50:21;;;;;;;11.93;10.57;;;;;;;9.78;74.87;100479.95;1677671;85;20969;-77
2022/04/22 04:52:47;;;;;;;16.85;12.23;;;;;;;9.85;75.17;100478.55;1684587;85;20923;-80
2022/04/22 04:55:14;;;;;;;14.60;12.00;;;;;;;9.85;75.17;100478.55;1683810;84;20950;-80
2022/04/22 04:57:42;;;;;;;19.30;12.27;;;;;;;9.90;74.95;100481.03;1679968;84;20917;-78
2022/04/22 05:00:11;;;;;;;14.50;11.80;;;;;;;9.91;74.91;100481.00;1674998;85;21444;-79
2022/04/22 05:02:38;;;;;;;16.35;12.20;;;;;;;9.93;74.96;100484.42;1681388;84;21119;-79
2022/04/22 05:05:06;;;;;;;15.43;12.03;;;;;;;9.95;74.94;100489.56;1677511;84;21335;-79
2022/04/22 05:07:36;;;;;;;16.73;11.57;;;;;;;9.95;74.93;100485.69;1680105;85;21001;-78
2022/04/22 05:10:03;;;;;;;16.55;13.25;;;;;;;9.93;74.94;100485.70;1676887;85;21100;-78
2022/04/22 05:12:29;;;;;;;16.80;12.30;;;;;;;9.92;74.93;100478.84;1684120;83;27093;-79
2022/04/22 05:14:57;;;;;;;16.80;12.40;;;;;;;9.92;75.00;100485.30;1701601;82;20992;-78
2022/04/22 05:17:23;;;;;;;19.07;12.90;;;;;;;9.94;75.05;100482.69;1690979;83;21752;-77
2022/04/22 05:19:49;;;;;;;17.60;12.57;;;;;;;9.93;75.03;100484.42;1688895;83;21004;-77
2022/04/22 05:22:15;;;;;;;17.87;12.63;;;;;;;9.96;75.09;100484.81;1688402;83;21024;-80
2022/04/22 05:24:44;;;;;;;20.17;12.65;;;;;;;9.95;75.08;100483.10;1693165;82;21559;-79
2022/04/22 05:27:10;;;;;;;17.37;12.17;;;;;;;9.96;75.11;100485.66;1711435;83;21006;-78
2022/04/22 05:32:39;;;;;;;14.95;11.50;;;;;;;9.99;75.15;100481.33;1698767;83;21087;-79
2022/04/22 05:35:09;;;;;;;14.47;12.33;;;;;;;9.99;75.11;100487.78;1680589;83;21655;-78
2022/04/22 05:37:53;;;;;;;;;;;;;;;10.00;75.18;100480.02;1647742;84;21378;-78
2022/04/22 05:40:26;;;;;;;17.90;12.75;;;;;;;10.04;75.39;100479.08;1697233;82;20420;-80
2022/04/22 05:42:54;;;;;;;17.55;13.55;;;;;;;10.04;75.15;100477.80;1703461;82;21579;-79
2022/04/22 05:45:22;;;;;;;17.87;13.28;;;;;;;10.06;75.13;100481.20;1694461;82;21110;-78
2022/04/22 05:47:56;;;;;;;14.75;12.45;;;;;;;10.05;75.17;100472.19;1709425;82;21508;-79
2022/04/22 05:50:19;;;;;;;16.15;13.13;;;;;;;10.07;75.26;100476.89;1697191;82;21040;-78
2022/04/22 05:52:47;;;;;;;17.30;13.53;;;;;;;10.11;75.25;100479.41;1692271;82;21639;-78
2022/04/22 05:55:17;;;;;;;18.82;13.83;;;;;;;10.13;75.24;100480.67;1704754;82;20988;-78
2022/04/22 05:57:46;;;;;;;19.62;13.22;;;;;;;10.16;75.27;100485.34;1702405;82;21602;-79
2022/04/22 06:00:15;;;;;;;22.25;14.90;;;;;;;10.22;75.28;100483.14;1713664;82;21623;-79
2022/04/22 06:02:43;;;;;;;18.32;14.78;;;;;;;10.24;75.22;100482.23;1658507;84;21459;-79
2022/04/22 06:05:13;;;;;;;20.00;15.35;;;;;;;10.28;75.29;100483.03;1702317;82;20873;-79
2022/04/22 06:07:40;;;;;;;31.87;14.45;;;;;;;10.31;75.31;100486.86;1706460;82;21527;-78
2022/04/22 06:12:54;;;;;;;17.52;13.98;;;;;;;10.40;75.33;100481.50;1689039;82;21426;-79
2022/04/22 06:15:21;;;;;;;21.20;14.33;;;;;;;10.42;75.30;100483.63;1695406;84;20877;-79
2022/04/22 06:17:47;;;;;;;15.68;13.53;;;;;;;10.44;75.33;100480.57;1692731;83;25564;-79
2022/04/22 06:20:14;;;;;;;19.15;14.40;;;;;;;10.47;75.34;100485.69;1695153;83;20909;-79
2022/04/22 06:22:40;;;;;;;21.37;15.00;;;;;;;10.50;75.33;100483.05;1696138;84;20945;-79
2022/04/22 06:25:09;;;;;;;21.20;15.20;;;;;;;10.52;75.32;100491.63;1653334;85;21574;-84
2022/04/22 06:27:40;;;;;;;17.45;13.55;;;;;;;10.53;75.31;100489.45;1624146;87;20962;-80
2022/04/22 06:30:16;;;;;;;19.00;14.07;;;;;;;10.58;75.44;100491.96;1639264;86;21439;-80
2022/04/22 06:32:46;;;;;;;19.30;13.38;;;;;;;10.64;75.41;100492.30;1637088;86;21443;-80
2022/04/22 06:35:14;;;;;;;19.23;14.47;;;;;;;10.68;75.37;100496.09;1641186;85;21429;-80
2022/04/22 06:37:49;;;;;;;20.27;14.05;;;;;;;10.73;75.39;100499.89;1683690;84;20936;-81
2022/04/22 06:45:54;;;;;;;19.23;13.45;;;;;;;10.87;75.37;100516.00;1688591;84;21575;-79
2022/04/22 06:48:33;;;;;;;21.80;14.40;;;;;;;10.90;75.34;100510.77;1624791;87;20910;-78
2022/04/22 06:51:01;;;;;;;16.23;13.53;;;;;;;10.91;75.35;100509.89;1626288;87;21509;-79
2022/04/22 06:53:29;;;;;;;21.33;14.70;;;;;;;10.92;75.35;100510.27;1650481;86;21496;-79
2022/04/22 06:55:58;;;;;;;;;;;;;;;10.95;75.39;100509.77;1647201;85;21585;-80
2022/04/22 06:58:26;;;;;;;17.42;13.53;;;;;;;11.03;75.50;100519.13;1689309;84;20203;-80
2022/04/22 07:00:53;;;;;;;19.75;14.40;;;;;;;11.10;75.44;100519.41;1686841;84;21790;-78
2022/04/22 07:03:19;;;;;;;20.65;14.40;;;;;;;11.14;75.40;100521.06;1680624;84;21067;-79
2022/04/22 07:05:48;;;;;;;23.35;15.40;;;;;;;11.14;75.38;100523.20;1678274;84;27464;-78
2022/04/22 07:08:17;;;;;;;17.92;14.50;;;;;;;11.21;75.47;100517.03;1692195;83;21292;-78
2022/04/22 07:10:49;;;;;;;18.95;14.90;;;;;;;11.25;75.41;100515.23;1692762;83;20960;-78
2022/04/22 07:13:16;;;;;;;18.82;15.10;;;;;;;11.27;75.34;100518.64;1685849;83;21111;-78
2022/04/22 07:15:50;;;;;;;18.30;14.18;;;;;;;11.27;75.36;100524.67;1682910;83;21749;-78
2022/04/22 07:18:17;;;;;;;19.27;13.93;;;;;;;11.28;75.39;100514.73;1691016;83;21052;-78
2022/04/22 07:20:44;;;;;;;18.10;14.23;;;;;;;11.32;75.40;100521.98;1678149;83;21060;-78
2022/04/22 07:23:12;;;;;;;19.75;14.43;;;;;;;11.35;75.37;100514.16;1650583;84;21525;-79
2022/04/22 07:25:38;;;;;;;19.40;14.45;;;;;;;11.38;75.44;100512.80;1684490;83;21385;-79
2022/04/22 07:28:08;;;;;;;18.12;14.18;;;;;;;11.40;75.35;100508.89;1684598;83;21654;-79
2022/04/22 07:30:35;;;;;;;20.30;12.95;;;;;;;11.44;75.45;100514.38;1689803;83;21041;-81
2022/04/22 07:33:02;;;;;;;18.45;14.05;;;;;;;11.48;75.35;100522.05;1682113;83;21089;-80
2022/04/22 07:35:28;;;;;;;17.92;14.07;;;;;;;11.48;75.33;100527.23;1680113;83;21048;-79
2022/04/22 07:37:55;;;;;;;17.67;15.30;;;;;;;11.52;75.32;100533.20;1676059;83;20972;-80
2022/04/22 07:40:22;;;;;;;20.32;14.73;;;;;;;11.51;75.27;100541.85;1676820;83;21641;-80
2022/04/22 07:48:26;;;;;;;16.77;13.03;;;;;;;11.46;75.24;100549.71;1653857;83;21096;-79
2022/04/22 07:50:55;;;;;;;15.90;13.85;;;;;;;11.47;75.30;100549.27;1681480;83;21040;-80
2022/04/22 07:53:22;;;;;;;16.00;13.03;;;;;;;11.49;75.23;100556.13;1682079;83;20924;-80
2022/04/22 07:55:48;;;;;;;;;;;;;;;11.48;75.22;100562.63;1690058;83;21492;-79
2022/04/22 07:58:17;;;;;;;22.20;14.07;;;;;;;11.47;75.12;100563.52;1684121;83;27706;-80
2022/04/22 08:00:46;;;;;;;19.12;12.95;;;;;;;11.45;75.12;100569.16;1691256;83;21336;-81
2022/04/22 08:03:18;;;;;;;17.98;13.43;;;;;;;11.41;75.07;100563.67;1687385;83;21545;-81
2022/04/22 08:05:44;;;;;;;19.90;13.93;;;;;;;11.40;75.14;100565.41;1677791;83;20905;-80
2022/04/22 08:08:10;;;;;;;19.80;14.80;;;;;;;11.41;75.15;100562.37;1699099;83;20929;-80
2022/04/22 08:10:37;;;;;;;20.37;14.73;;;;;;;11.44;75.11;100563.58;1680808;83;21328;-80
2022/04/22 08:13:05;;;;;;;17.45;13.35;;;;;;;11.42;75.03;100564.93;1673157;84;21095;-79
2022/04/22 08:15:33;;;;;;;19.60;13.85;;;;;;;11.41;75.05;100567.55;1678042;84;21107;-80
2022/04/22 08:18:01;;;;;;;22.55;14.28;;;;;;;11.42;75.11;100571.84;1689973;84;20983;-79
2022/04/22 08:20:33;;;;;;;16.80;13.88;;;;;;;11.44;75.09;100570.90;1694158;83;21063;-79
2022/04/22 08:23:00;;;;;;;21.62;13.80;;;;;;;11.50;75.13;100578.55;1694504;84;21484;-80
2022/04/22 08:25:27;;;;;;;17.35;13.45;;;;;;;11.54;75.04;100581.48;1694461;84;21056;-79
2022/04/22 08:27:53;;;;;;;21.37;13.50;;;;;;;11.54;75.03;100575.45;1628795;86;21047;-79
2022/04/22 08:30:20;;;;;;;16.73;13.47;;;;;;;11.56;75.04;100584.04;1657462;86;21140;-80
2022/04/22 08:32:46;;;;;;;15.50;12.98;;;;;;;11.59;75.05;100585.27;1650124;86;21125;-80
2022/04/22 08:35:12;;;;;;;20.63;14.33;;;;;;;11.59;74.95;100586.57;1643591;86;20928;-80
2022/04/22 08:37:38;;;;;;;17.03;12.80;;;;;;;11.59;74.98;100586.13;1642470;87;20953;-81
2022/04/22 08:40:09;;;;;;;15.90;12.15;;;;;;;11.63;74.95;100588.66;1639859;86;26868;-80
2022/04/22 08:42:38;;;;;;;13.58;12.18;;;;;;;11.62;74.86;100589.09;1639830;85;21018;-81
2022/04/22 08:45:07;;;;;;;16.87;12.88;;;;;;;11.61;74.87;100596.45;1643021;86;21156;-82
2022/04/22 08:50:19;;;;;;;17.40;14.90;;;;;;;11.59;74.76;100589.16;1640712;86;21148;-82
2022/04/22 08:52:59;;;;;;;23.47;16.42;;;;;;;11.60;74.85;100586.98;1637822;85;21195;-81
2022/04/22 08:55:26;;;;;;;18.73;14.95;;;;;;;11.64;74.83;100587.77;1640562;86;21136;-81
2022/04/22 08:57:54;;;;;;;16.02;14.53;;;;;;;11.66;74.71;100586.86;1642068;86;21073;-80
2022/04/22 09:00:27;;;;;;;16.95;15.30;;;;;;;11.67;74.70;100594.19;1624324;86;21136;-81
2022/04/22 09:02:55;;;;;;;16.90;15.30;;;;;;;11.65;74.62;100598.55;1643496;87;21435;-81
2022/04/22 09:05:27;;;;;;;22.32;20.05;;;;;;;11.64;74.59;100598.13;1626627;86;20918;-80
2022/04/22 09:07:53;;;;;;;24.47;21.93;;;;;;;11.63;74.62;100611.52;1637579;86;20942;-80
2022/04/22 09:10:20;;;;;;;24.00;21.55;;;;;;;11.64;74.65;100604.16;1613267;87;21012;-79
2022/04/22 09:12:54;;;;;;;23.40;21.10;;;;;;;11.69;74.62;100598.89;1640501;86;21025;-81
2022/04/22 09:15:27;;;;;;;24.98;22.37;;;;;;;11.69;74.54;100595.86;1644111;86;20966;-82
2022/04/22 09:18:00;;;;;;;25.80;23.18;;;;;;;11.70;74.55;100597.56;1653723;85;20948;-82
2022/04/22 09:20:31;;;;;;;26.25;23.50;;;;;;;11.67;74.41;100604.55;1681980;84;21078;-78
2022/04/22 09:22:57;;;;;;;28.05;24.05;;;;;;;11.64;74.46;100600.28;1682612;84;21060;-81
2022/04/22 09:25:25;;;;;;;26.17;23.02;;;;;;;11.63;74.46;100602.45;1674137;83;21053;-81
2022/04/22 09:27:52;;;;;;;25.82;23.25;;;;;;;11.68;74.56;100600.63;1680198;85;21435;-79
2022/04/22 09:30:18;;;;;;;25.30;22.77;;;;;;;11.77;74.52;100601.77;1682678;84;21039;-81
2022/04/22 09:32:45;;;;;;;26.50;23.80;;;;;;;11.87;74.54;100595.95;1685318;84;20982;-81
2022/04/22 09:35:17;;;;;;;25.27;22.40;;;;;;;12.01;74.62;100594.32;1634513;87;21048;-81
2022/04/22 09:43:38;;;;;;;20.32;18.15;;;;;;;12.35;74.34;100597.00;1666579;85;20921;-81
2022/04/22 09:46:04;;;;;;;21.97;19.77;;;;;;;12.40;74.33;100587.38;1685789;84;20894;-81
2022/04/22 09:48:44;;;;;;;23.27;20.68;;;;;;;12.44;74.29;100595.49;1679395;84;25095;-81
2022/04/22 09:51:24;;;;;;;22.42;20.45;;;;;;;12.36;74.09;100603.45;1672633;85;20925;-80
2022/04/22 09:54:08;;;;;;;23.07;20.27;;;;;;;12.26;74.07;100598.06;1686008;84;20917;-82
2022/04/22 09:56:34;;;;;;;23.12;21.02;;;;;;;12.15;73.98;100609.98;1686089;85;20890;-81
2022/04/22 09:59:08;;;;;;;24.15;22.00;;;;;;;12.01;73.94;100607.28;1669652;84;20924;-81
2022/04/22 10:01:35;;;;;;;21.70;19.80;;;;;;;11.88;73.92;100610.16;1680933;85;20921;-81
2022/04/22 10:04:04;;;;;;;21.40;19.55;;;;;;;11.75;73.85;100616.45;1686610;85;20949;-81
2022/04/22 10:06:31;;;;;;;20.43;18.47;;;;;;;11.66;73.92;100613.20;1684081;84;21092;-81
2022/04/22 10:08:57;;;;;;;18.12;16.70;;;;;;;11.60;73.98;100607.26;1655305;85;21159;-81
2022/04/22 10:11:25;;;;;;;19.62;17.80;;;;;;;11.56;73.96;100599.14;1679506;84;21096;-79
2022/04/22 10:13:53;;;;;;;16.07;14.75;;;;;;;11.65;74.06;100603.28;1679852;83;20917;-80
2022/04/22 10:16:19;;;;;;;14.73;13.58;;;;;;;11.76;74.02;100603.06;1694591;83;20885;-80
2022/04/22 10:18:45;;;;;;;11.10;10.30;;;;;;;11.93;74.07;100601.85;1683129;83;20850;-79
2022/04/22 10:21:12;;;;;;;10.58;9.73;;;;;;;12.12;74.02;100591.05;1651334;85;21057;-80
2022/04/22 10:23:38;;;;;;;9.27;8.47;;;;;;;12.16;73.90;100568.05;1682489;85;20834;-80
2022/04/22 10:26:05;;;;;;;7.42;6.92;;;;;;;12.55;73.82;100596.05;1668084;83;20918;-80
2022/04/22 10:28:32;;;;;;;7.67;7.10;;;;;;;12.64;73.58;100596.28;1690461;83;20977;-82
2022/04/22 10:31:02;;;;;;;7.83;7.08;;;;;;;12.62;73.57;100598.91;1667551;83;20958;-81
2022/04/22 10:33:44;;;;;;;6.75;6.25;;;;;;;12.59;73.48;100598.53;1645994;85;20890;-82
2022/04/22 10:36:19;;;;;;;6.42;5.92;;;;;;;12.52;73.45;100596.13;1688035;83;20956;-81
2022/04/22 10:38:49;;;;;;;7.12;6.42;;;;;;;12.47;73.43;100600.16;1697486;83;20910;-81
2022/04/22 10:41:22;;;;;;;5.70;5.20;;;;;;;12.45;73.40;100607.57;1697039;83;20885;-80
2022/04/22 10:49:39;;;;;;;3.62;2.70;;;;;;;12.46;73.11;100596.30;1684990;83;20874;-81
2022/04/22 10:52:14;;;;;;;4.58;3.80;;;;;;;12.48;73.19;100609.61;1666332;83;20981;-83
2022/04/22 10:54:59;;;;;;;3.98;3.50;;;;;;;12.58;73.25;100595.98;1669923;83;21128;-80
2022/04/22 10:57:33;;;;;;;3.47;3.17;;;;;;;12.73;73.02;100598.64;1641084;85;407801;-81
2022/04/22 11:00:14;;;;;;;3.62;3.33;;;;;;;12.82;72.96;100591.48;1685203;85;21131;-80
2022/04/22 11:02:42;;;;;;;3.60;3.30;;;;;;;12.88;72.84;100593.92;1669378;83;21032;-83
2022/04/22 11:05:25;;;;;;;3.67;3.47;;;;;;;12.98;72.84;100595.83;1664309;83;21012;-80
2022/04/22 11:07:56;;;;;;;3.85;3.55;;;;;;;13.06;72.83;100590.41;1679433;83;21112;-80
2022/04/22 11:10:30;;;;;;;6.62;3.67;;;;;;;13.18;72.84;100588.38;1677970;83;20913;-81
2022/04/22 11:13:00;;;;;;;4.10;3.75;;;;;;;13.24;72.71;100594.70;1669382;83;20921;-81
2022/04/22 11:15:47;;;;;;;3.58;3.27;;;;;;;13.32;72.56;100600.13;1661926;85;20952;-82
2022/04/22 11:18:15;;;;;;;4.28;3.87;;;;;;;13.30;72.47;100591.08;1656197;85;20941;-80
2022/04/22 11:20:48;;;;;;;5.20;4.70;;;;;;;13.20;72.11;100594.38;1666406;84;20952;-82
2022/04/22 11:23:15;;;;;;;7.00;6.30;;;;;;;13.14;72.32;100588.46;1687094;84;20909;-81
2022/04/22 11:25:45;;;;;;;6.00;5.42;;;;;;;13.08;72.26;100588.63;1641865;85;20948;-81
2022/04/22 11:28:12;;;;;;;5.67;5.17;;;;;;;13.06;72.21;100591.27;1669753;85;20913;-81
2022/04/22 11:30:38;;;;;;;6.35;5.85;;;;;;;13.05;72.14;100581.77;1686400;85;21474;-80
2022/04/22 11:33:23;;;;;;;5.33;4.93;;;;;;;13.13;72.19;100586.31;1676425;84;21044;-80
2022/04/22 11:35:56;;;;;;;4.85;4.47;;;;;;;13.17;71.58;100579.33;1683896;85;20984;-83
2022/04/22 11:38:24;;;;;;;5.67;4.95;;;;;;;13.15;71.79;100569.39;1672917;84;20929;-84
2022/04/22 11:40:50;;;;;;;5.28;4.87;;;;;;;13.18;71.82;100568.05;1680847;85;20945;-83
2022/04/22 11:43:21;;;;;;;4.85;4.50;;;;;;;13.28;71.89;100563.00;1687050;85;21007;-81
2022/04/22 11:45:50;;;;;;;4.55;4.12;;;;;;;13.43;71.82;100558.69;1686777;85;20905;-83
2022/04/22 11:48:24;;;;;;;4.50;4.20;;;;;;;13.52;71.50;100566.63;1684341;84;20945;-81
2022/04/22 11:50:53;;;;;;;5.22;4.42;;;;;;;13.53;71.42;100562.69;1641423;86;20966;-81
2022/04/22 11:53:26;;;;;;;3.70;3.40;;;;;;;13.56;71.33;100566.50;1682534;84;20909;-80
2022/04/22 11:56:08;;;;;;;3.30;3.00;;;;;;;13.58;71.17;100567.30;1682661;84;20914;-80
2022/04/22 11:58:33;;;;;;;3.40;3.10;;;;;;;13.62;71.18;100568.52;1673547;85;20937;-80
2022/04/22 12:06:28;;;;;;;4.80;3.42;;;;;;;13.41;70.58;100560.47;1673019;84;20949;-80
2022/04/22 12:09:06;;;;;;;5.65;5.05;;;;;;;13.41;70.64;100567.41;1680450;85;20913;-80
2022/04/22 12:11:42;;;;;;;4.00;3.65;;;;;;;13.37;70.44;100563.20;1669516;84;20976;-82
2022/04/22 12:14:11;;;;;;;5.40;5.00;;;;;;;13.37;70.32;100557.55;1675580;84;20917;-82
2022/04/22 12:16:59;;;;;;;5.58;5.10;;;;;;;13.38;69.87;100571.39;1688514;84;20907;-82
2022/04/22 12:19:27;;;;;;;5.80;5.12;;;;;;;13.36;69.86;100567.98;1655256;84;20918;-82
2022/04/22 12:21:54;;;;;;;6.05;5.45;;;;;;;13.29;69.84;100566.01;1673024;84;21015;-80
2022/04/22 12:24:21;;;;;;;5.78;5.37;;;;;;;13.28;69.24;100562.16;1660247;84;21074;-81
2022/04/22 12:26:48;;;;;;;4.62;4.33;;;;;;;13.24;69.60;100557.49;1674943;84;21719;-81
2022/04/22 12:29:17;;;;;;;4.55;4.20;;;;;;;13.31;69.56;100549.94;1661373;84;20992;-82